createdAt,value
2019-03-20T00:00:02.481Z,96831
2019-03-20T00:01:11.993Z,96824
2019-03-20T00:02:21.535Z,96823
2019-03-20T00:03:31.087Z,96827
2019-03-20T00:04:49.150Z,96824
2019-03-20T00:05:51.116Z,96826
2019-03-20T00:07:00.644Z,96822
2019-03-20T00:08:10.183Z,96826
2019-03-20T00:09:19.729Z,96830
2019-03-20T00:10:29.259Z,96830
2019-03-20T00:11:38.797Z,96836
2019-03-20T00:12:48.366Z,96833
2019-03-20T00:13:57.883Z,96832
2019-03-20T00:15:07.453Z,96832
2019-03-20T00:16:16.958Z,96831
2019-03-20T00:17:26.481Z,96830
2019-03-20T00:18:36.055Z,96837
2019-03-20T00:19:45.592Z,96836
2019-03-20T00:20:55.128Z,96836
2019-03-20T00:22:04.638Z,96839
2019-03-20T00:23:14.191Z,96838
2019-03-20T00:24:23.732Z,96836
2019-03-20T00:25:33.270Z,96841
2019-03-20T00:26:42.849Z,96840
2019-03-20T00:27:52.374Z,96832
2019-03-20T00:29:01.943Z,96840
2019-03-20T00:30:11.482Z,96840
2019-03-20T00:31:21.020Z,96841
2019-03-20T00:32:30.558Z,96839
2019-03-20T00:33:40.092Z,96838
2019-03-20T00:35:00.241Z,96840
2019-03-20T00:36:00.114Z,96839
2019-03-20T00:37:09.653Z,96840
2019-03-20T00:38:19.174Z,96844
2019-03-20T00:39:28.715Z,96839
2019-03-20T00:40:38.233Z,96839
2019-03-20T00:41:47.766Z,96838
2019-03-20T00:42:57.278Z,96836
2019-03-20T00:44:06.822Z,96838
2019-03-20T00:45:16.355Z,96837
2019-03-20T00:46:25.893Z,96839
2019-03-20T00:47:35.424Z,96838
2019-03-20T00:48:44.995Z,96837
2019-03-20T00:49:54.510Z,96836
2019-03-20T00:51:04.035Z,96838
2019-03-20T00:52:13.580Z,96834
2019-03-20T00:53:23.128Z,96837
2019-03-20T00:54:32.657Z,96835
2019-03-20T00:55:42.212Z,96836
2019-03-20T00:56:51.754Z,96835
2019-03-20T00:58:01.269Z,96836
2019-03-20T00:59:10.823Z,96840
2019-03-20T01:00:20.348Z,96848
2019-03-20T01:01:29.934Z,96838
2019-03-20T01:02:39.440Z,96840
2019-03-20T01:03:48.991Z,96839
2019-03-20T01:04:58.533Z,96833
2019-03-20T01:06:09.036Z,96833
2019-03-20T01:07:18.574Z,96833
2019-03-20T01:08:28.102Z,96835
2019-03-20T01:09:37.637Z,96828
2019-03-20T01:10:47.164Z,96828
2019-03-20T01:11:56.699Z,96826
2019-03-20T01:13:06.246Z,96826
2019-03-20T01:14:15.766Z,96824
2019-03-20T01:15:25.304Z,96824
2019-03-20T01:16:34.835Z,96824
2019-03-20T01:17:44.364Z,96823
2019-03-20T01:18:53.907Z,96826
2019-03-20T01:20:03.451Z,96829
2019-03-20T01:21:12.986Z,96828
2019-03-20T01:22:22.518Z,96829
2019-03-20T01:23:32.049Z,96830
2019-03-20T01:24:41.587Z,96827
2019-03-20T01:25:51.122Z,96827
2019-03-20T01:27:00.655Z,96823
2019-03-20T01:28:10.172Z,96823
2019-03-20T01:29:19.725Z,96827
2019-03-20T01:30:29.278Z,96826
2019-03-20T01:31:38.827Z,96830
2019-03-20T01:32:48.348Z,96826
2019-03-20T01:33:57.919Z,96826
2019-03-20T01:35:07.440Z,96826
2019-03-20T01:36:17.939Z,96826
2019-03-20T01:37:27.486Z,96824
2019-03-20T01:38:37.018Z,96826
2019-03-20T01:39:46.568Z,96822
2019-03-20T01:40:56.075Z,96824
2019-03-20T01:42:05.613Z,96822
2019-03-20T01:43:15.143Z,96823
2019-03-20T01:44:24.704Z,96828
2019-03-20T01:45:34.229Z,96833
2019-03-20T01:46:43.767Z,96831
2019-03-20T01:47:53.299Z,96827
2019-03-20T01:49:02.859Z,96827
2019-03-20T01:50:12.378Z,96827
2019-03-20T01:51:21.927Z,96830
2019-03-20T01:52:31.463Z,96826
2019-03-20T01:53:40.978Z,96824
2019-03-20T01:54:50.528Z,96818
2019-03-20T01:56:01.552Z,96819
2019-03-20T01:57:09.586Z,96820
2019-03-20T01:58:19.132Z,96823
2019-03-20T01:59:28.663Z,96821
2019-03-20T02:00:38.221Z,96823
2019-03-20T02:01:47.746Z,96827
2019-03-20T02:02:57.264Z,96826
2019-03-20T02:04:06.798Z,96826
2019-03-20T02:05:16.379Z,96825
2019-03-20T02:06:25.930Z,96828
2019-03-20T02:07:35.445Z,96831
2019-03-20T02:08:44.989Z,96832
2019-03-20T02:09:54.525Z,96828
2019-03-20T02:11:04.064Z,96822
2019-03-20T02:12:13.606Z,96821
2019-03-20T02:13:23.115Z,96821
2019-03-20T02:14:32.688Z,96821
2019-03-20T02:15:42.206Z,96812
2019-03-20T02:16:51.737Z,96815
2019-03-20T02:18:01.264Z,96818
2019-03-20T02:19:10.787Z,96818
2019-03-20T02:20:20.321Z,96821
2019-03-20T02:21:29.865Z,96818
2019-03-20T02:22:39.415Z,96816
2019-03-20T02:23:48.930Z,96822
2019-03-20T02:24:58.482Z,96818
2019-03-20T02:26:08.015Z,96822
2019-03-20T02:27:17.538Z,96819
2019-03-20T02:28:27.076Z,96820
2019-03-20T02:29:36.606Z,96819
2019-03-20T02:30:46.128Z,96819
2019-03-20T02:31:55.659Z,96818
2019-03-20T02:33:05.185Z,96817
2019-03-20T02:34:14.710Z,96818
2019-03-20T02:35:24.257Z,96820
2019-03-20T02:36:33.787Z,96817
2019-03-20T02:37:43.337Z,96816
2019-03-20T02:38:52.860Z,96815
2019-03-20T02:40:02.407Z,96816
2019-03-20T02:41:11.938Z,96814
2019-03-20T02:42:21.484Z,96808
2019-03-20T02:43:31.003Z,96811
2019-03-20T02:44:40.543Z,96810
2019-03-20T02:45:50.084Z,96811
2019-03-20T02:46:59.620Z,96807
2019-03-20T02:48:09.156Z,96809
2019-03-20T02:49:18.687Z,96805
2019-03-20T02:50:28.219Z,96806
2019-03-20T02:51:37.757Z,96804
2019-03-20T02:52:47.288Z,96807
2019-03-20T02:53:56.821Z,96801
2019-03-20T02:55:06.349Z,96804
2019-03-20T02:56:16.887Z,96808
2019-03-20T02:57:26.436Z,96809
2019-03-20T02:58:35.952Z,96803
2019-03-20T02:59:45.484Z,96806
2019-03-20T03:00:55.023Z,96796
2019-03-20T03:02:04.558Z,96795
2019-03-20T03:03:14.085Z,96795
2019-03-20T03:04:23.606Z,96798
2019-03-20T03:05:33.157Z,96796
2019-03-20T03:06:42.695Z,96797
2019-03-20T03:07:52.263Z,96800
2019-03-20T03:09:01.780Z,96799
2019-03-20T03:10:11.314Z,96800
2019-03-20T03:11:20.885Z,96796
2019-03-20T03:12:30.411Z,96797
2019-03-20T03:13:39.947Z,96796
2019-03-20T03:14:49.505Z,96797
2019-03-20T03:15:59.026Z,96799
2019-03-20T03:17:08.586Z,96799
2019-03-20T03:18:18.095Z,96810
2019-03-20T03:19:27.640Z,96807
2019-03-20T03:20:37.181Z,96806
2019-03-20T03:21:46.708Z,96804
2019-03-20T03:22:56.261Z,96808
2019-03-20T03:24:05.798Z,96809
2019-03-20T03:25:15.340Z,96808
2019-03-20T03:26:24.895Z,96809
2019-03-20T03:27:34.431Z,96806
2019-03-20T03:28:43.954Z,96811
2019-03-20T03:29:53.488Z,96816
2019-03-20T03:31:03.027Z,96809
2019-03-20T03:32:12.570Z,96812
2019-03-20T03:33:22.122Z,96820
2019-03-20T03:34:31.618Z,96818
2019-03-20T03:35:41.183Z,96820
2019-03-20T03:36:50.711Z,96822
2019-03-20T03:38:00.233Z,96821
2019-03-20T03:39:09.801Z,96820
2019-03-20T03:40:19.322Z,96825
2019-03-20T03:41:28.873Z,96822
2019-03-20T03:42:38.399Z,96822
2019-03-20T03:43:47.926Z,96822
2019-03-20T03:44:57.455Z,96824
2019-03-20T03:46:07.013Z,96828
2019-03-20T03:47:16.606Z,96827
2019-03-20T03:48:26.169Z,96824
2019-03-20T03:49:35.764Z,96826
2019-03-20T03:50:48.111Z,96825
2019-03-20T03:51:54.829Z,96826
2019-03-20T03:53:04.341Z,96827
2019-03-20T03:54:13.881Z,96831
2019-03-20T03:55:23.416Z,96832
2019-03-20T03:56:32.948Z,96832
2019-03-20T03:57:42.488Z,96831
2019-03-20T03:58:52.032Z,96832
2019-03-20T04:00:01.593Z,96830
2019-03-20T04:01:11.127Z,96830
2019-03-20T04:02:20.641Z,96830
2019-03-20T04:03:30.168Z,96831
2019-03-20T04:04:39.684Z,96832
2019-03-20T04:05:49.239Z,96834
2019-03-20T04:06:58.799Z,96833
2019-03-20T04:08:08.327Z,96840
2019-03-20T04:09:17.874Z,96839
2019-03-20T04:10:27.398Z,96840
2019-03-20T04:11:36.972Z,96845
2019-03-20T04:12:46.507Z,96843
2019-03-20T04:13:56.031Z,96848
2019-03-20T04:15:05.568Z,96845
2019-03-20T04:16:15.106Z,96848
2019-03-20T04:17:24.654Z,96845
2019-03-20T04:18:34.204Z,96854
2019-03-20T04:19:43.724Z,96851
2019-03-20T04:20:53.251Z,96854
2019-03-20T04:22:02.815Z,96855
2019-03-20T04:23:12.313Z,96851
2019-03-20T04:24:21.843Z,96854
2019-03-20T04:25:31.367Z,96850
2019-03-20T04:26:40.948Z,96852
2019-03-20T04:27:50.490Z,96846
2019-03-20T04:29:00.002Z,96849
2019-03-20T04:30:09.534Z,96845
2019-03-20T04:31:19.061Z,96847
2019-03-20T04:32:28.625Z,96852
2019-03-20T04:33:38.145Z,96850
2019-03-20T04:34:47.682Z,96854
2019-03-20T04:35:57.219Z,96850
2019-03-20T04:37:06.762Z,96853
2019-03-20T04:38:17.290Z,96850
2019-03-20T04:39:26.816Z,96853
2019-03-20T04:40:36.373Z,96860
2019-03-20T04:41:45.903Z,96859
2019-03-20T04:42:55.446Z,96862
2019-03-20T04:44:04.993Z,96861
2019-03-20T04:45:15.521Z,96863
2019-03-20T04:46:25.055Z,96871
2019-03-20T04:47:34.586Z,96867
2019-03-20T04:48:44.130Z,96875
2019-03-20T04:49:53.660Z,96872
2019-03-20T04:51:03.202Z,96872
2019-03-20T04:52:12.734Z,96869
2019-03-20T04:53:22.276Z,96870
2019-03-20T04:54:31.790Z,96869
2019-03-20T04:55:41.338Z,96874
2019-03-20T04:56:50.878Z,96874
2019-03-20T04:58:00.420Z,96872
2019-03-20T04:59:09.920Z,96871
2019-03-20T05:00:19.462Z,96876
2019-03-20T05:01:29.008Z,96870
2019-03-20T05:02:38.531Z,96875
2019-03-20T05:03:48.063Z,96877
2019-03-20T05:04:57.627Z,96875
2019-03-20T05:06:07.151Z,96880
2019-03-20T05:07:16.685Z,96880
2019-03-20T05:08:26.220Z,96886
2019-03-20T05:09:35.747Z,96884
2019-03-20T05:10:45.320Z,96884
2019-03-20T05:11:54.900Z,96884
2019-03-20T05:13:04.407Z,96884
2019-03-20T05:14:13.926Z,96886
2019-03-20T05:15:23.451Z,96896
2019-03-20T05:16:33.011Z,96896
2019-03-20T05:17:42.532Z,96901
2019-03-20T05:18:52.071Z,96902
2019-03-20T05:20:01.621Z,96897
2019-03-20T05:21:11.226Z,96901
2019-03-20T05:22:20.784Z,96903
2019-03-20T05:23:31.311Z,96903
2019-03-20T05:24:40.842Z,96905
2019-03-20T05:25:50.372Z,96903
2019-03-20T05:26:59.899Z,96910
2019-03-20T05:28:09.433Z,96913
2019-03-20T05:29:18.949Z,96910
2019-03-20T05:30:28.503Z,96914
2019-03-20T05:31:38.039Z,96915
2019-03-20T05:32:47.576Z,96920
2019-03-20T05:33:58.125Z,96919
2019-03-20T05:35:07.666Z,96920
2019-03-20T05:36:17.199Z,96913
2019-03-20T05:37:26.749Z,96918
2019-03-20T05:38:36.278Z,96923
2019-03-20T05:39:45.818Z,96927
2019-03-20T05:40:55.368Z,96928
2019-03-20T05:42:04.908Z,96925
2019-03-20T05:43:14.480Z,96927
2019-03-20T05:44:24.044Z,96926
2019-03-20T05:45:33.716Z,96927
2019-03-20T05:46:43.341Z,96928
2019-03-20T05:47:52.868Z,96929
2019-03-20T05:49:02.399Z,96929
2019-03-20T05:50:11.933Z,96932
2019-03-20T05:51:21.495Z,96933
2019-03-20T05:52:31.026Z,96934
2019-03-20T05:53:40.556Z,96937
2019-03-20T05:54:50.096Z,96938
2019-03-20T05:55:59.622Z,96933
2019-03-20T05:57:09.188Z,96935
2019-03-20T05:58:18.702Z,96939
2019-03-20T05:59:28.239Z,96943
2019-03-20T06:00:37.803Z,96948
2019-03-20T06:01:47.348Z,96946
2019-03-20T06:02:56.871Z,96943
2019-03-20T06:04:06.409Z,96945
2019-03-20T06:05:15.946Z,96942
2019-03-20T06:06:25.705Z,96944
2019-03-20T06:07:35.254Z,96939
2019-03-20T06:08:44.798Z,96944
2019-03-20T06:09:54.341Z,96946
2019-03-20T06:11:03.878Z,96951
2019-03-20T06:12:14.678Z,96949
2019-03-20T06:13:24.204Z,96950
2019-03-20T06:14:33.735Z,96951
2019-03-20T06:15:43.280Z,96954
2019-03-20T06:16:52.826Z,96955
2019-03-20T06:18:02.360Z,96955
2019-03-20T06:19:11.903Z,96958
2019-03-20T06:20:21.471Z,96958
2019-03-20T06:21:31.023Z,96963
2019-03-20T06:22:40.539Z,96966
2019-03-20T06:23:50.071Z,96960
2019-03-20T06:24:59.607Z,96965
2019-03-20T06:26:09.129Z,96965
2019-03-20T06:27:18.681Z,96964
2019-03-20T06:28:28.233Z,96964
2019-03-20T06:29:37.755Z,96971
2019-03-20T06:30:47.270Z,96971
2019-03-20T06:31:56.827Z,96972
2019-03-20T06:33:06.359Z,96969
2019-03-20T06:34:15.885Z,96974
2019-03-20T06:35:25.408Z,96976
2019-03-20T06:36:34.975Z,96983
2019-03-20T06:37:44.515Z,96980
2019-03-20T06:38:54.041Z,96979
2019-03-20T06:40:03.558Z,96987
2019-03-20T06:41:13.119Z,96980
2019-03-20T06:42:22.670Z,96983
2019-03-20T06:43:32.204Z,96977
2019-03-20T06:44:41.735Z,96983
2019-03-20T06:45:51.271Z,96974
2019-03-20T06:47:00.815Z,96978
2019-03-20T06:48:10.334Z,96975
2019-03-20T06:49:19.873Z,96979
2019-03-20T06:50:29.404Z,96986
2019-03-20T06:51:38.999Z,96979
2019-03-20T06:52:48.512Z,96984
2019-03-20T06:53:58.055Z,96990
2019-03-20T06:55:07.577Z,96984
2019-03-20T06:56:17.113Z,96992
2019-03-20T06:57:26.655Z,96991
2019-03-20T06:58:36.198Z,96992
2019-03-20T06:59:45.734Z,96995
2019-03-20T07:00:55.268Z,96995
2019-03-20T07:02:04.811Z,96999
2019-03-20T07:03:14.337Z,96994
2019-03-20T07:04:23.871Z,97005
2019-03-20T07:05:33.408Z,97005
2019-03-20T07:06:42.935Z,97007
2019-03-20T07:07:52.489Z,97003
2019-03-20T07:09:02.034Z,97006
2019-03-20T07:10:11.562Z,97004
2019-03-20T07:11:21.121Z,97011
2019-03-20T07:12:30.656Z,97015
2019-03-20T07:13:40.194Z,97010
2019-03-20T07:14:49.720Z,97014
2019-03-20T07:15:59.247Z,97015
2019-03-20T07:17:08.828Z,97015
2019-03-20T07:18:18.353Z,97020
2019-03-20T07:19:27.893Z,97020
2019-03-20T07:20:37.435Z,97021
2019-03-20T07:21:46.971Z,97018
2019-03-20T07:22:56.518Z,97024
2019-03-20T07:24:06.036Z,97022
2019-03-20T07:25:15.570Z,97020
2019-03-20T07:26:25.100Z,97023
2019-03-20T07:27:34.640Z,97023
2019-03-20T07:28:44.164Z,97016
2019-03-20T07:29:53.696Z,97021
2019-03-20T07:31:14.154Z,97022
2019-03-20T07:32:13.762Z,97032
2019-03-20T07:33:23.307Z,97030
2019-03-20T07:34:32.837Z,97032
2019-03-20T07:35:42.358Z,97030
2019-03-20T07:36:51.879Z,97033
2019-03-20T07:38:01.441Z,97032
2019-03-20T07:39:10.958Z,97034
2019-03-20T07:40:20.483Z,97032
2019-03-20T07:41:30.016Z,97033
2019-03-20T07:42:39.550Z,97037
2019-03-20T07:43:49.078Z,97034
2019-03-20T07:44:58.610Z,97039
2019-03-20T07:46:08.130Z,97043
2019-03-20T07:47:17.661Z,97043
2019-03-20T07:48:27.219Z,97036
2019-03-20T07:49:36.742Z,97037
2019-03-20T07:50:46.295Z,97033
2019-03-20T07:51:55.838Z,97035
2019-03-20T07:53:05.364Z,97038
2019-03-20T07:54:14.893Z,97038
2019-03-20T07:55:24.427Z,97039
2019-03-20T07:56:33.962Z,97028
2019-03-20T07:57:43.499Z,97038
2019-03-20T07:58:53.032Z,97036
2019-03-20T08:00:02.581Z,97031
2019-03-20T08:01:12.103Z,97030
2019-03-20T08:02:22.622Z,97032
2019-03-20T08:03:32.177Z,97032
2019-03-20T08:04:41.725Z,97036
2019-03-20T08:05:51.238Z,97041
2019-03-20T08:07:00.781Z,97043
2019-03-20T08:08:10.328Z,97044
2019-03-20T08:09:19.875Z,97047
2019-03-20T08:10:29.374Z,97050
2019-03-20T08:11:38.920Z,97051
2019-03-20T08:12:48.484Z,97054
2019-03-20T08:13:58.006Z,97054
2019-03-20T08:15:07.536Z,97058
2019-03-20T08:16:17.078Z,97053
2019-03-20T08:17:26.607Z,97057
2019-03-20T08:18:36.149Z,97056
2019-03-20T08:19:45.692Z,97051
2019-03-20T08:20:55.221Z,97058
2019-03-20T08:22:04.758Z,97059
2019-03-20T08:23:14.295Z,97056
2019-03-20T08:24:23.825Z,97059
2019-03-20T08:25:33.352Z,97058
2019-03-20T08:26:42.880Z,97054
2019-03-20T08:27:52.424Z,97058
2019-03-20T08:29:01.940Z,97054
2019-03-20T08:30:13.694Z,97057
2019-03-20T08:31:21.031Z,97060
2019-03-20T08:32:30.564Z,97061
2019-03-20T08:33:40.110Z,97060
2019-03-20T08:34:49.639Z,97057
2019-03-20T08:35:59.161Z,97055
2019-03-20T08:37:08.703Z,97054
2019-03-20T08:38:18.946Z,97052
2019-03-20T08:39:27.819Z,97054
2019-03-20T08:40:37.368Z,97059
2019-03-20T08:43:51.302Z,97060
2019-03-20T08:45:00.869Z,97060
2019-03-20T08:46:10.429Z,97061
2019-03-20T08:47:20.005Z,97066
2019-03-20T08:48:48.597Z,97063
2019-03-20T08:49:58.096Z,97071
2019-03-20T08:51:07.676Z,97071
2019-03-20T08:52:17.222Z,97075
2019-03-20T08:53:26.806Z,97069
2019-03-20T08:54:36.350Z,97068
2019-03-20T08:55:45.919Z,97066
2019-03-20T08:56:55.466Z,97065
2019-03-20T08:59:32.575Z,97067
2019-03-20T09:00:42.186Z,97067
2019-03-20T09:01:51.792Z,97072
2019-03-20T09:03:01.361Z,97072
2019-03-20T09:04:10.950Z,97072
2019-03-20T09:05:20.481Z,97075
2019-03-20T09:06:30.010Z,97075
2019-03-20T09:07:47.073Z,97077
2019-03-20T09:08:50.067Z,97078
2019-03-20T09:09:59.574Z,97078
2019-03-20T09:11:09.113Z,97080
2019-03-20T09:12:18.686Z,97080
2019-03-20T09:13:28.306Z,97071
2019-03-20T09:14:37.880Z,97076
2019-03-20T09:15:47.456Z,97080
2019-03-20T09:16:57.027Z,97081
2019-03-20T09:18:06.570Z,97086
2019-03-20T09:19:16.140Z,97081
2019-03-20T09:20:25.719Z,97080
2019-03-20T09:21:35.242Z,97085
2019-03-20T09:22:44.778Z,97082
2019-03-20T09:23:54.322Z,97082
2019-03-20T09:25:03.863Z,97082
2019-03-20T09:26:13.392Z,97081
2019-03-20T09:27:22.922Z,97081
2019-03-20T09:28:32.479Z,97082
2019-03-20T09:29:41.992Z,97079
2019-03-20T09:30:51.541Z,97077
2019-03-20T09:32:01.052Z,97088
2019-03-20T09:33:10.580Z,97081
2019-03-20T09:34:20.126Z,97085
2019-03-20T09:35:29.687Z,97085
2019-03-20T09:36:43.248Z,97084
2019-03-20T09:37:52.025Z,97076
2019-03-20T09:38:58.216Z,97082
2019-03-20T09:40:07.740Z,97091
2019-03-20T09:41:17.275Z,97086
2019-03-20T09:42:26.803Z,97088
2019-03-20T09:43:36.340Z,97091
2019-03-20T09:44:45.871Z,97091
2019-03-20T09:45:56.970Z,97089
2019-03-20T09:47:04.921Z,97083
2019-03-20T09:48:14.462Z,97080
2019-03-20T09:49:23.999Z,97085
2019-03-20T09:50:33.521Z,97081
2019-03-20T09:51:43.041Z,97081
2019-03-20T09:52:52.579Z,97084
2019-03-20T09:54:02.119Z,97079
2019-03-20T09:55:11.649Z,97074
2019-03-20T09:56:21.191Z,97080
2019-03-20T09:57:30.736Z,97082
2019-03-20T09:58:40.269Z,97076
2019-03-20T09:59:49.799Z,97079
2019-03-20T10:00:59.352Z,97082
2019-03-20T10:02:08.868Z,97076
2019-03-20T10:03:18.405Z,97078
2019-03-20T10:04:27.963Z,97082
2019-03-20T10:05:37.478Z,97084
2019-03-20T10:06:47.014Z,97077
2019-03-20T10:07:56.544Z,97080
2019-03-20T10:09:06.089Z,97086
2019-03-20T10:10:15.617Z,97083
2019-03-20T10:11:26.200Z,97080
2019-03-20T10:12:35.800Z,97075
2019-03-20T10:13:45.396Z,97075
2019-03-20T10:14:55.009Z,97077
2019-03-20T10:16:04.579Z,97074
2019-03-20T10:17:14.129Z,97081
2019-03-20T10:18:27.185Z,97078
2019-03-20T10:19:36.805Z,97080
2019-03-20T10:20:46.413Z,97086
2019-03-20T10:22:13.901Z,97088
2019-03-20T10:23:23.499Z,97086
2019-03-20T10:24:33.060Z,97090
2019-03-20T10:25:44.681Z,97089
2019-03-20T10:26:52.167Z,97083
2019-03-20T10:28:01.753Z,97083
2019-03-20T10:29:11.341Z,97085
2019-03-20T10:30:20.914Z,97088
2019-03-20T10:31:30.465Z,97089
2019-03-20T10:32:40.035Z,97092
2019-03-20T10:33:49.591Z,97086
2019-03-20T10:34:59.152Z,97094
2019-03-20T10:36:08.718Z,97092
2019-03-20T10:37:18.288Z,97090
2019-03-20T10:38:27.860Z,97089
2019-03-20T10:39:37.487Z,97090
2019-03-20T10:40:47.049Z,97089
2019-03-20T10:41:56.657Z,97089
2019-03-20T10:43:06.272Z,97095
2019-03-20T10:44:16.866Z,97094
2019-03-20T10:45:26.488Z,97091
2019-03-20T10:46:36.094Z,97092
2019-03-20T10:47:45.702Z,97093
2019-03-20T10:48:56.538Z,97094
2019-03-20T10:50:05.918Z,97093
2019-03-20T10:51:15.515Z,97093
2019-03-20T10:52:25.139Z,97095
2019-03-20T10:53:34.772Z,97094
2019-03-20T10:54:44.392Z,97095
2019-03-20T10:55:54.016Z,97094
2019-03-20T10:57:03.603Z,97092
2019-03-20T10:58:13.210Z,97097
2019-03-20T10:59:22.824Z,97099
2019-03-20T11:00:32.448Z,97097
2019-03-20T11:01:43.103Z,97092
2019-03-20T11:02:52.682Z,97095
2019-03-20T11:04:02.280Z,97097
2019-03-20T11:05:11.899Z,97097
2019-03-20T11:06:21.672Z,97097
2019-03-20T11:07:31.463Z,97098
2019-03-20T11:08:41.064Z,97093
2019-03-20T11:09:50.700Z,97098
2019-03-20T11:11:00.304Z,97102
2019-03-20T11:12:09.919Z,97103
2019-03-20T11:13:19.535Z,97091
2019-03-20T11:14:29.143Z,97095
2019-03-20T11:15:38.766Z,97095
2019-03-20T11:16:48.371Z,97100
2019-03-20T11:17:57.982Z,97102
2019-03-20T11:19:07.595Z,97099
2019-03-20T11:20:17.223Z,97100
2019-03-20T11:21:26.823Z,97102
2019-03-20T11:22:36.448Z,97101
2019-03-20T11:23:46.041Z,97103
2019-03-20T11:24:55.664Z,97106
2019-03-20T11:26:05.268Z,97110
2019-03-20T11:27:14.905Z,97113
2019-03-20T11:28:24.510Z,97108
2019-03-20T11:29:34.124Z,97108
2019-03-20T11:30:43.757Z,97111
2019-03-20T11:31:53.379Z,97113
2019-03-20T11:33:02.976Z,97109
2019-03-20T11:34:12.573Z,97106
2019-03-20T11:35:22.205Z,97106
2019-03-20T11:36:31.814Z,97102
2019-03-20T11:37:41.414Z,97101
2019-03-20T11:38:51.026Z,97102
2019-03-20T11:40:00.647Z,97095
2019-03-20T11:41:10.261Z,97097
2019-03-20T11:42:19.876Z,97098
2019-03-20T11:43:29.473Z,97103
2019-03-20T11:44:39.088Z,97102
2019-03-20T11:45:48.698Z,97105
2019-03-20T11:46:58.314Z,97103
2019-03-20T11:48:07.903Z,97105
2019-03-20T11:49:17.539Z,97103
2019-03-20T11:50:27.154Z,97099
2019-03-20T11:51:36.759Z,97100
2019-03-20T11:52:46.357Z,97100
2019-03-20T11:53:55.971Z,97101
2019-03-20T11:55:05.591Z,97096
2019-03-20T11:56:15.217Z,97090
2019-03-20T11:57:24.810Z,97089
2019-03-20T11:58:34.425Z,97090
2019-03-20T11:59:44.053Z,97091
2019-03-20T12:00:53.651Z,97096
2019-03-20T12:02:03.288Z,97092
2019-03-20T12:03:12.906Z,97084
2019-03-20T12:04:22.540Z,97091
2019-03-20T12:05:32.153Z,97090
2019-03-20T12:06:41.773Z,97089
2019-03-20T12:07:51.379Z,97092
2019-03-20T12:09:00.979Z,97090
2019-03-20T12:10:10.601Z,97089
2019-03-20T12:11:20.436Z,97091
2019-03-20T12:12:29.834Z,97093
2019-03-20T12:13:39.446Z,97096
2019-03-20T12:14:48.050Z,97095
2019-03-20T12:15:57.646Z,97092
2019-03-20T12:17:07.281Z,97086
2019-03-20T12:18:16.894Z,97100
2019-03-20T12:19:26.491Z,97092
2019-03-20T12:20:37.095Z,97095
2019-03-20T12:21:46.698Z,97089
2019-03-20T12:22:56.327Z,97097
2019-03-20T12:24:05.935Z,97099
2019-03-20T12:25:15.555Z,97100
2019-03-20T12:26:25.176Z,97100
2019-03-20T12:27:34.801Z,97095
2019-03-20T12:28:44.414Z,97087
2019-03-20T12:29:54.094Z,97090
2019-03-20T12:31:03.709Z,97086
2019-03-20T12:32:13.325Z,97089
2019-03-20T12:33:22.961Z,97086
2019-03-20T12:34:32.554Z,97083
2019-03-20T12:35:42.182Z,97078
2019-03-20T12:36:51.773Z,97080
2019-03-20T12:38:13.264Z,97078
2019-03-20T12:39:11.984Z,97082
2019-03-20T12:40:21.576Z,97076
2019-03-20T12:41:31.179Z,97072
2019-03-20T12:42:40.816Z,97069
2019-03-20T12:43:50.440Z,97073
2019-03-20T12:45:00.050Z,97065
2019-03-20T12:46:09.669Z,97065
2019-03-20T12:47:19.288Z,97064
2019-03-20T12:48:28.902Z,97064
2019-03-20T12:49:38.513Z,97068
2019-03-20T12:50:48.149Z,97064
2019-03-20T12:51:57.724Z,97066
2019-03-20T12:53:07.342Z,97069
2019-03-20T12:54:17.225Z,97070
2019-03-20T12:55:26.829Z,97072
2019-03-20T12:56:37.437Z,97071
2019-03-20T12:57:47.044Z,97069
2019-03-20T12:58:56.677Z,97064
2019-03-20T13:00:06.315Z,97064
2019-03-20T13:01:15.887Z,97070
2019-03-20T13:02:25.496Z,97073
2019-03-20T13:03:35.125Z,97066
2019-03-20T13:04:44.731Z,97067
2019-03-20T13:05:54.419Z,97058
2019-03-20T13:07:04.036Z,97064
2019-03-20T13:08:13.716Z,97061
2019-03-20T13:09:23.351Z,97062
2019-03-20T13:10:32.958Z,97066
2019-03-20T13:11:42.577Z,97068
2019-03-20T13:12:52.185Z,97063
2019-03-20T13:14:01.802Z,97062
2019-03-20T13:15:11.431Z,97058
2019-03-20T13:16:21.057Z,97059
2019-03-20T13:17:30.669Z,97062
2019-03-20T13:18:40.327Z,97052
2019-03-20T13:19:49.947Z,97056
2019-03-20T13:20:59.617Z,97053
2019-03-20T13:22:09.318Z,97050
2019-03-20T13:23:19.040Z,97052
2019-03-20T13:24:28.787Z,97051
2019-03-20T13:25:38.516Z,97046
2019-03-20T13:26:48.188Z,97047
2019-03-20T13:27:57.799Z,97050
2019-03-20T13:29:07.426Z,97043
2019-03-20T13:30:20.211Z,97049
2019-03-20T13:31:26.611Z,97046
2019-03-20T13:32:36.210Z,97046
2019-03-20T13:33:45.834Z,97038
2019-03-20T13:34:55.455Z,97035
2019-03-20T13:36:05.031Z,97035
2019-03-20T13:37:14.636Z,97041
2019-03-20T13:38:24.252Z,97036
2019-03-20T13:39:33.880Z,97030
2019-03-20T13:40:43.503Z,97029
2019-03-20T13:41:53.123Z,97028
2019-03-20T13:43:02.734Z,97032
2019-03-20T13:44:12.357Z,97030
2019-03-20T13:45:21.956Z,97034
2019-03-20T13:46:31.585Z,97038
2019-03-20T13:47:41.165Z,97035
2019-03-20T13:48:50.769Z,97034
2019-03-20T13:50:00.424Z,97039
2019-03-20T13:51:09.990Z,97037
2019-03-20T13:52:19.590Z,97039
2019-03-20T13:53:29.224Z,97038
2019-03-20T13:54:38.834Z,97037
2019-03-20T13:55:48.442Z,97042
2019-03-20T13:56:58.052Z,97039
2019-03-20T13:58:07.657Z,97037
2019-03-20T13:59:17.283Z,97037
2019-03-20T14:00:26.897Z,97036
2019-03-20T14:01:36.540Z,97036
2019-03-20T14:02:46.157Z,97037
2019-03-20T14:03:55.734Z,97035
2019-03-20T14:05:05.357Z,97037
2019-03-20T14:06:15.034Z,97032
2019-03-20T14:07:24.674Z,97028
2019-03-20T14:08:34.281Z,97033
2019-03-20T14:09:43.906Z,97028
2019-03-20T14:10:53.511Z,97032
2019-03-20T14:12:03.135Z,97030
2019-03-20T14:13:12.712Z,97034
2019-03-20T14:14:22.364Z,97026
2019-03-20T14:15:31.957Z,97027
2019-03-20T14:16:41.572Z,97030
2019-03-20T14:17:51.164Z,97027
2019-03-20T14:19:00.777Z,97029
2019-03-20T14:20:10.400Z,97029
2019-03-20T14:21:20.018Z,97024
2019-03-20T14:22:29.630Z,97026
2019-03-20T14:23:39.226Z,97024
2019-03-20T14:24:48.854Z,97025
2019-03-20T14:25:58.470Z,97025
2019-03-20T14:27:08.069Z,97024
2019-03-20T14:28:17.679Z,97018
2019-03-20T14:29:27.271Z,97020
2019-03-20T14:30:36.897Z,97017
2019-03-20T14:31:46.500Z,97017
2019-03-20T14:32:56.132Z,97019
2019-03-20T14:34:05.735Z,97015
2019-03-20T14:35:15.376Z,97020
2019-03-20T14:36:24.969Z,97018
2019-03-20T14:37:34.580Z,97012
2019-03-20T14:38:44.187Z,97012
2019-03-20T14:39:53.819Z,97019
2019-03-20T14:41:03.421Z,97017
2019-03-20T14:42:13.038Z,97020
2019-03-20T14:43:22.665Z,97022
2019-03-20T14:44:32.255Z,97026
2019-03-20T14:45:41.884Z,97020
2019-03-20T14:46:51.497Z,97019
2019-03-20T14:48:01.095Z,97020
2019-03-20T14:49:10.706Z,97012
2019-03-20T14:50:20.343Z,97009
2019-03-20T14:51:29.951Z,97013
2019-03-20T14:52:39.578Z,97012
2019-03-20T14:53:49.191Z,97013
2019-03-20T14:54:58.786Z,97007
2019-03-20T14:56:08.398Z,97004
2019-03-20T14:57:18.044Z,97003
2019-03-20T14:58:27.640Z,97007
2019-03-20T14:59:37.253Z,96998